createdAt,value
2018-06-19T00:04:05.692Z,8.8
2018-06-19T00:10:05.461Z,8.33
2018-06-19T00:16:11.723Z,10.59
2018-06-19T00:21:50.742Z,7.95
2018-06-19T00:27:45.694Z,8.33
2018-06-19T00:33:40.721Z,8.84
2018-06-19T00:39:35.764Z,9.24
2018-06-19T00:45:30.720Z,8.89
2018-06-19T00:51:25.773Z,9.88
2018-06-19T00:57:20.755Z,9.06
2018-06-19T01:03:15.791Z,8.68
2018-06-19T01:09:10.795Z,8.71
2018-06-19T01:15:05.739Z,10.3
2018-06-19T01:21:00.727Z,9.08
2018-06-19T01:26:55.791Z,9.45
2018-06-19T01:32:50.746Z,10.18
2018-06-19T01:38:45.843Z,8.69
2018-06-19T01:44:40.774Z,9.2
2018-06-19T01:50:35.744Z,10.15
2018-06-19T01:56:30.829Z,10.01
2018-06-19T02:02:25.828Z,9.73
2018-06-19T02:08:20.823Z,10.09
2018-06-19T02:14:15.819Z,10.53
2018-06-19T02:20:10.839Z,12.42
2018-06-19T02:26:05.779Z,10.51
2018-06-19T02:32:00.810Z,10.1
2018-06-19T02:37:55.784Z,10.72
2018-06-19T02:43:50.823Z,10.56
2018-06-19T02:49:45.821Z,11.83
2018-06-19T02:55:40.839Z,10.41
2018-06-19T03:01:35.919Z,10.63
2018-06-19T03:07:30.828Z,10.54
2018-06-19T03:13:25.849Z,11.66
2018-06-19T03:19:20.837Z,9.04
2018-06-19T03:25:15.875Z,9.18
2018-06-19T03:31:10.907Z,8.91
2018-06-19T03:37:05.851Z,9.23
2018-06-19T03:43:00.891Z,8.14
2018-06-19T03:48:55.876Z,10.36
2018-06-19T03:54:50.888Z,8.78
2018-06-19T04:00:45.871Z,9.17
2018-06-19T04:06:40.978Z,9.39
2018-06-19T04:12:35.901Z,11.14
2018-06-19T04:18:30.893Z,14.89
2018-06-19T04:24:25.888Z,13.15
2018-06-19T04:30:20.898Z,11.12
2018-06-19T04:36:15.953Z,12.97
2018-06-19T04:42:10.996Z,13.8
2018-06-19T04:48:05.931Z,11.57
2018-06-19T04:54:00.957Z,13.66
2018-06-19T04:59:55.907Z,15.41
2018-06-19T05:05:50.963Z,10.24
2018-06-19T05:11:45.996Z,10.97
2018-06-19T05:17:41.018Z,9.24
2018-06-19T05:23:35.923Z,6.65
2018-06-19T05:29:30.943Z,6.18
2018-06-19T05:35:25.955Z,6
2018-06-19T05:41:20.997Z,7.43
2018-06-19T05:47:15.964Z,13.65
2018-06-19T05:53:10.930Z,13.98
2018-06-19T05:59:05.982Z,14.11
2018-06-19T06:05:00.982Z,15.84
2018-06-19T06:10:56.045Z,15.97
2018-06-19T06:16:50.950Z,17.77
2018-06-19T06:22:45.970Z,21.45
2018-06-19T06:28:40.984Z,20.42
2018-06-19T06:34:36.051Z,17
2018-06-19T06:40:30.976Z,14.23
2018-06-19T06:46:26.058Z,12.89
2018-06-19T06:52:21.045Z,9.55
2018-06-19T06:58:15.981Z,7.66
2018-06-19T07:04:11.081Z,6.32
2018-06-19T07:10:06.013Z,6.37
2018-06-19T07:16:01.153Z,5.64
2018-06-19T07:21:56.023Z,7.15
2018-06-19T07:27:51.030Z,4.55
2018-06-19T07:33:46.036Z,4.67
2018-06-19T07:39:41.018Z,4.05
2018-06-19T07:45:36.054Z,4.05
2018-06-19T07:51:31.080Z,3.92
2018-06-19T07:57:26.065Z,5.29
2018-06-19T08:03:21.068Z,5.23
2018-06-19T08:09:16.129Z,4.47
2018-06-19T08:15:11.132Z,3.62
2018-06-19T08:21:06.046Z,3.56
2018-06-19T08:27:01.077Z,3.35
2018-06-19T08:32:56.082Z,3.7
2018-06-19T08:38:51.089Z,3.37
2018-06-19T08:44:46.067Z,3.16
2018-06-19T08:50:41.065Z,4.73
2018-06-19T08:56:36.109Z,3.96
2018-06-19T09:02:31.080Z,3.58
2018-06-19T09:08:26.146Z,3.24
2018-06-19T09:14:21.151Z,2.92
2018-06-19T09:20:16.239Z,2.55
2018-06-19T09:26:11.110Z,4.09
2018-06-19T09:32:06.165Z,2.62
2018-06-19T09:38:01.168Z,2.63
2018-06-19T09:43:56.167Z,3.61
2018-06-19T09:49:51.175Z,5.17
2018-06-19T09:55:46.184Z,2.63
2018-06-19T10:01:41.153Z,4.15
2018-06-19T10:07:36.177Z,2.54
2018-06-19T10:13:31.145Z,2.34
2018-06-19T10:19:26.239Z,2.42
2018-06-19T10:25:21.151Z,1.79
2018-06-19T10:31:16.166Z,1.81
2018-06-19T10:37:11.182Z,1.97
2018-06-19T10:43:06.274Z,2.29
2018-06-19T10:49:01.208Z,2.95
2018-06-19T10:54:56.192Z,1.74
2018-06-19T11:00:51.304Z,1.78
2018-06-19T11:06:46.220Z,1.84
2018-06-19T11:12:41.270Z,2.72
2018-06-19T11:18:36.230Z,1.46
2018-06-19T11:24:31.236Z,1.44
2018-06-19T11:30:26.274Z,2.3
2018-06-19T11:36:21.227Z,1.49
2018-06-19T11:42:16.274Z,2.36
2018-06-19T11:48:11.257Z,1.57
2018-06-19T11:54:06.250Z,1.68
2018-06-19T12:00:01.416Z,2.63
2018-06-19T12:05:56.314Z,2.62
2018-06-19T12:11:51.328Z,1.7
2018-06-19T12:17:46.241Z,1.59
2018-06-19T12:23:41.263Z,1.47
2018-06-19T12:29:36.374Z,2.87
2018-06-19T12:35:31.267Z,1.77
2018-06-19T12:41:26.326Z,1.62
2018-06-19T12:47:21.291Z,1.74
2018-06-19T12:53:16.332Z,1.36
2018-06-19T12:59:11.336Z,3.13
2018-06-19T13:05:06.342Z,1.55
2018-06-19T13:11:01.291Z,1.56
2018-06-19T13:16:56.307Z,1.85
2018-06-19T13:22:51.328Z,1.48
2018-06-19T13:28:46.340Z,2.53
2018-06-19T13:34:41.382Z,1.52
2018-06-19T13:40:36.344Z,2.9
2018-06-19T13:46:31.402Z,1.69
2018-06-19T13:52:26.390Z,1.66
2018-06-19T13:58:21.421Z,1.62
2018-06-19T14:04:16.394Z,2.36
2018-06-19T14:10:11.387Z,1.66
2018-06-19T14:16:06.452Z,1.78
2018-06-19T14:22:01.397Z,2.32
2018-06-19T14:27:56.395Z,2.1
2018-06-19T14:33:51.464Z,1.64
2018-06-19T14:39:46.390Z,2.48
2018-06-19T14:45:41.402Z,1.86
2018-06-19T14:51:36.450Z,2.21
2018-06-19T14:57:31.431Z,2.17
2018-06-19T15:03:26.448Z,3.83
2018-06-19T15:09:21.493Z,2.25
2018-06-19T15:15:16.492Z,3.56
2018-06-19T15:21:11.425Z,2.4
2018-06-19T15:27:06.459Z,2.65
2018-06-19T15:33:01.458Z,2.29
2018-06-19T15:38:56.464Z,2.25
2018-06-19T15:44:51.424Z,2.65
2018-06-19T15:50:46.453Z,2.42
2018-06-19T15:56:41.447Z,2.32
2018-06-19T16:02:36.486Z,2.85
2018-06-19T16:08:31.464Z,2.78
2018-06-19T16:14:26.520Z,2.53
2018-06-19T16:20:21.530Z,4.16
2018-06-19T16:26:16.578Z,2.71
2018-06-19T16:32:11.544Z,2.76
2018-06-19T16:38:06.497Z,2.38
2018-06-19T16:44:01.527Z,2.76
2018-06-19T16:49:56.636Z,2.26
2018-06-19T16:55:51.507Z,2.91
2018-06-19T17:01:46.545Z,2.26
2018-06-19T17:07:41.543Z,2.24
2018-06-19T17:13:36.530Z,2.37
2018-06-19T17:19:31.552Z,2.18
2018-06-19T17:25:26.594Z,2.02
2018-06-19T17:31:21.595Z,2.07
2018-06-19T17:37:16.571Z,2.27
2018-06-19T17:43:11.570Z,5.3
2018-06-19T17:49:06.574Z,2.07
2018-06-19T17:55:01.636Z,2.61
2018-06-19T18:00:56.587Z,3.99
2018-06-19T18:06:51.612Z,2.14
2018-06-19T18:12:46.604Z,3.11
2018-06-19T18:18:41.613Z,2.8
2018-06-19T18:24:36.623Z,4.27
2018-06-19T18:30:31.607Z,2.06
2018-06-19T18:36:26.629Z,4.18
2018-06-19T18:42:21.640Z,2.2
2018-06-19T18:48:16.653Z,2.08
2018-06-19T18:54:11.673Z,2.46
2018-06-19T19:00:06.642Z,2.34
2018-06-19T19:06:01.672Z,2.03
2018-06-19T19:11:56.681Z,1.95
2018-06-19T19:17:51.648Z,2.79
2018-06-19T19:23:46.704Z,2.42
2018-06-19T19:29:41.674Z,2.13
2018-06-19T19:35:36.654Z,1.98
2018-06-19T19:41:31.721Z,2.3
2018-06-19T19:47:26.652Z,2.73
2018-06-19T19:53:21.734Z,2.4
2018-06-19T19:59:16.679Z,2.48
2018-06-19T20:05:11.686Z,2.36
2018-06-19T20:11:06.736Z,2.96
2018-06-19T20:17:01.692Z,3.61
2018-06-19T20:22:56.706Z,2.23
2018-06-19T20:28:51.691Z,2.27
2018-06-19T20:34:46.780Z,5.59
2018-06-19T20:40:41.699Z,2.17
2018-06-19T20:46:36.795Z,1.64
2018-06-19T20:52:31.780Z,1.12
2018-06-19T20:58:26.762Z,1.57
2018-06-19T21:04:21.743Z,1.39
2018-06-19T21:10:16.734Z,1.93
2018-06-19T21:16:11.766Z,1.63
2018-06-19T21:22:06.802Z,3.25
2018-06-19T21:28:01.742Z,1.73
2018-06-19T21:33:56.805Z,1.84
2018-06-19T21:39:51.798Z,1.81
2018-06-19T21:45:46.801Z,1.68
2018-06-19T21:51:41.878Z,1.38
2018-06-19T21:57:36.773Z,1.4
2018-06-19T22:03:31.819Z,1.95
2018-06-19T22:09:26.810Z,1.72
2018-06-19T22:15:21.794Z,2.27
2018-06-19T22:21:16.812Z,1.56
2018-06-19T22:27:11.836Z,2.93
2018-06-19T22:33:06.895Z,4.43
2018-06-19T22:39:01.889Z,1.56
2018-06-19T22:44:56.792Z,1.97
2018-06-19T22:50:51.831Z,1.47
2018-06-19T22:56:46.867Z,1.91
2018-06-19T23:02:41.878Z,2.34
2018-06-19T23:08:36.849Z,1.67
2018-06-19T23:14:31.837Z,1.65
2018-06-19T23:20:26.844Z,1.59
2018-06-19T23:26:21.851Z,1.77
2018-06-19T23:32:16.847Z,2.69
2018-06-19T23:38:11.858Z,2.7
2018-06-19T23:44:06.861Z,1.63
2018-06-19T23:50:01.926Z,1.64
2018-06-19T23:55:56.857Z,1.72
